Time;durP1;ratioP1;P1;durP2;ratioP2;P2;SDS_P1;SDS_P2;PMS_P1;PMS_P2;Temp;Humidity;BMP_temperature;BMP_pressure;BME280_temperature;BME280_humidity;BME280_pressure;Samples;Min_cycle;Max_cycle;Signal;HPM_P1;HPM_P2
2021/10/13 00:00:14;;;;;;;22.90;17.60;;;;;;;7.30;79.77;100035.85;88970;1242;94446;-61
2021/10/13 00:02:45;;;;;;;23.70;17.60;;;;;;;7.30;79.78;100037.16;86610;1240;3014031;-62
2021/10/13 00:04:55;;;;;;;24.80;16.80;;;;;;;7.31;79.70;100039.02;88911;1241;84932;-71
2021/10/13 00:07:02;;;;;;;22.90;18.00;;;;;;;7.32;79.66;100038.89;88899;1242;84003;-72
2021/10/13 00:09:10;;;;;;;23.90;17.90;;;;;;;7.33;79.67;100040.94;88971;1249;104759;-71
2021/10/13 00:11:18;;;;;;;24.30;18.00;;;;;;;7.34;79.68;100040.92;88891;1240;90975;-71
2021/10/13 00:13:25;;;;;;;23.40;18.40;;;;;;;7.34;79.75;100047.55;86430;1242;3182358;-60
2021/10/13 00:15:32;;;;;;;24.00;17.00;;;;;;;7.32;79.73;100043.84;88830;1243;94248;-59
2021/10/13 00:17:40;;;;;;;22.80;17.50;;;;;;;7.35;79.71;100040.77;86596;1246;3013872;-59
2021/10/13 00:19:47;;;;;;;25.00;17.20;;;;;;;7.37;79.68;100042.39;88959;1244;103305;-62
2021/10/13 00:21:55;;;;;;;21.00;16.10;;;;;;;7.35;79.74;100041.15;88865;1242;93946;-60
2021/10/13 00:24:02;;;;;;;21.60;16.90;;;;;;;7.35;79.79;100043.23;88983;1243;100365;-60
2021/10/13 00:26:09;;;;;;;20.90;16.40;;;;;;;7.35;79.84;100043.58;88931;1246;81206;-60
2021/10/13 00:28:16;;;;;;;23.90;17.90;;;;;;;7.34;79.80;100046.33;88862;1242;94710;-71
2021/10/13 00:30:24;;;;;;;23.70;17.00;;;;;;;7.35;79.80;100042.50;86850;1240;3026779;-73
2021/10/13 00:32:31;;;;;;;21.70;17.10;;;;;;;7.34;79.75;100042.44;89158;1241;91606;-73
2021/10/13 00:34:38;;;;;;;26.40;17.70;;;;;;;7.32;79.89;100045.14;89220;1241;99709;-72
2021/10/13 00:36:46;;;;;;;23.30;17.50;;;;;;;7.31;79.92;100046.15;86883;1239;3013495;-74
2021/10/13 00:38:53;;;;;;;25.40;18.30;;;;;;;7.32;79.94;100048.73;89130;1239;121335;-61
2021/10/13 00:41:03;;;;;;;27.80;20.80;;;;;;;7.29;79.98;100049.61;89196;1241;104101;-61
2021/10/13 00:43:10;;;;;;;24.90;19.00;;;;;;;7.28;79.98;100051.17;89114;1243;90937;-72
2021/10/13 00:45:18;;;;;;;25.50;19.20;;;;;;;7.30;79.96;100048.66;88999;1245;110718;-73
2021/10/13 00:47:25;;;;;;;26.50;18.60;;;;;;;7.27;80.01;100051.40;89128;1240;91407;-73
2021/10/13 00:49:33;;;;;;;23.70;18.70;;;;;;;7.24;80.10;100056.30;89095;1239;95483;-60
2021/10/13 00:51:43;;;;;;;26.30;19.30;;;;;;;7.25;80.11;100056.44;89059;1240;116375;-60
2021/10/13 00:53:51;;;;;;;28.80;20.30;;;;;;;7.26;80.20;100056.45;86893;1240;2899513;-61
2021/10/13 00:55:58;;;;;;;25.50;19.70;;;;;;;7.29;80.15;100059.50;89053;1239;111249;-62
2021/10/13 00:58:05;;;;;;;30.40;20.80;;;;;;;7.30;80.15;100058.83;89073;1239;93189;-71
2021/10/13 01:00:16;;;;;;;25.90;19.80;;;;;;;7.34;80.15;100061.63;89124;1240;94846;-72
2021/10/13 01:02:33;;;;;;;27.80;20.60;;;;;;;7.39;80.13;100068.75;89037;1240;115432;-72
2021/10/13 01:05:00;;;;;;;26.60;19.70;;;;;;;7.40;80.23;100065.55;89105;1253;102129;-71
2021/10/13 01:07:18;;;;;;;28.50;19.80;;;;;;;7.36;80.19;100070.34;89117;1239;111011;-73
2021/10/13 01:09:32;;;;;;;28.00;19.20;;;;;;;7.39;80.12;100074.38;86632;1245;3239893;-60
2021/10/13 01:11:56;;;;;;;;;;;;;;;7.40;80.07;100071.75;89110;1245;95732;-60
2021/10/13 01:14:27;;;;;;;24.30;18.20;;;;;;;7.37;80.15;100071.68;89103;1240;115875;-61
2021/10/13 01:16:46;;;;;;;25.10;18.20;;;;;;;7.32;80.21;100071.70;89120;1239;102486;-61
2021/10/13 01:19:04;;;;;;;25.40;18.10;;;;;;;7.28;80.17;100075.89;89047;1245;119498;-71
2021/10/13 01:21:31;;;;;;;23.30;17.30;;;;;;;7.27;80.16;100075.13;89048;1240;94757;-72
2021/10/13 01:24:05;;;;;;;23.10;17.30;;;;;;;7.22;80.12;100075.16;84626;1240;3027202;-61
2021/10/13 01:26:27;;;;;;;24.20;17.00;;;;;;;7.19;80.18;100074.40;86827;1241;3026781;-60
2021/10/13 01:28:39;;;;;;;25.90;18.80;;;;;;;7.20;80.24;100075.89;89200;1242;91578;-60
2021/10/13 01:30:53;;;;;;;22.70;16.70;;;;;;;7.22;80.14;100078.73;89181;1241;100002;-60
2021/10/13 01:33:07;;;;;;;26.20;18.20;;;;;;;7.28;80.06;100078.34;89156;1239;83052;-70
2021/10/13 01:35:17;;;;;;;23.50;18.20;;;;;;;7.28;80.04;100082.71;89122;1259;84494;-61
2021/10/13 01:37:29;;;;;;;25.80;18.60;;;;;;;7.25;80.08;100086.05;89121;1249;104580;-61
2021/10/13 01:39:40;;;;;;;25.30;18.00;;;;;;;7.19;80.23;100085.02;89139;1248;102062;-61
2021/10/13 01:41:50;;;;;;;26.80;18.80;;;;;;;7.10;80.23;100089.92;88921;1246;235894;-61
2021/10/13 01:44:00;;;;;;;24.80;17.70;;;;;;;7.12;80.13;100094.70;89080;1239;92378;-61
2021/10/13 01:46:08;;;;;;;24.00;17.20;;;;;;;7.12;80.11;100088.79;86895;1256;3013938;-60
2021/10/13 01:48:17;;;;;;;24.60;18.30;;;;;;;7.11;80.22;100090.14;89237;1244;104838;-73
2021/10/13 01:50:25;;;;;;;24.70;17.70;;;;;;;7.12;80.11;100087.76;89130;1248;104829;-73
2021/10/13 01:52:34;;;;;;;22.80;16.70;;;;;;;7.14;80.15;100088.75;89165;1240;99875;-73
2021/10/13 01:54:44;;;;;;;22.40;16.90;;;;;;;7.18;80.15;100091.39;89094;1241;91576;-61
2021/10/13 01:56:53;;;;;;;22.20;16.10;;;;;;;7.14;80.08;100088.98;89087;1239;95129;-61
2021/10/13 01:59:08;;;;;;;22.80;16.20;;;;;;;7.11;80.12;100093.92;86540;1239;3383740;-73
2021/10/13 02:01:17;;;;;;;22.00;16.30;;;;;;;7.16;80.01;100091.36;86796;1241;3013398;-74
2021/10/13 02:03:29;;;;;;;22.60;17.00;;;;;;;7.17;80.11;100094.95;89196;1241;100456;-72
2021/10/13 02:05:38;;;;;;;21.40;16.20;;;;;;;7.14;80.05;100093.60;89066;1239;122044;-71
2021/10/13 02:07:47;;;;;;;20.90;16.40;;;;;;;7.12;80.09;100094.49;89087;1240;95952;-75
2021/10/13 02:10:09;;;;;;;21.20;16.00;;;;;;;7.08;80.09;100100.77;89029;1244;115358;-74
2021/10/13 02:12:17;;;;;;;19.50;14.80;;;;;;;7.05;80.07;100099.42;89131;1240;101376;-74
2021/10/13 02:14:29;;;;;;;17.50;14.70;;;;;;;6.99;80.19;100100.61;89003;1243;111647;-74
2021/10/13 02:16:38;;;;;;;19.40;14.50;;;;;;;7.02;80.02;100102.47;89061;1240;90462;-75
2021/10/13 02:18:46;;;;;;;18.20;14.40;;;;;;;7.05;80.00;100105.23;89119;1243;95560;-75
2021/10/13 02:20:55;;;;;;;20.50;15.00;;;;;;;7.08;80.08;100106.15;89063;1249;115941;-77
2021/10/13 02:23:05;;;;;;;19.40;14.70;;;;;;;7.07;80.11;100108.20;88996;1240;111814;-72
2021/10/13 02:25:13;;;;;;;18.30;14.70;;;;;;;7.09;79.97;100108.02;89081;1239;111404;-75
2021/10/13 02:27:28;;;;;;;18.80;14.90;;;;;;;7.10;80.06;100115.23;89057;1239;94590;-75
2021/10/13 02:29:37;;;;;;;18.90;14.90;;;;;;;7.11;80.05;100112.98;86833;1241;3081739;-76
2021/10/13 02:31:45;;;;;;;18.60;14.90;;;;;;;7.11;80.03;100115.76;89182;1250;103811;-75
2021/10/13 02:33:52;;;;;;;19.00;14.20;;;;;;;7.11;80.03;100112.77;86887;1239;3013769;-76
2021/10/13 02:36:00;;;;;;;16.70;13.90;;;;;;;7.10;80.00;100116.23;89072;1246;111018;-77
2021/10/13 02:38:07;;;;;;;17.00;13.60;;;;;;;7.09;79.97;100121.53;88788;1241;121607;-76
2021/10/13 02:40:15;;;;;;;16.40;13.70;;;;;;;7.09;79.89;100122.68;89075;1261;93821;-76
2021/10/13 02:42:22;;;;;;;18.70;14.10;;;;;;;7.13;80.01;100125.39;89067;1239;116472;-75
2021/10/13 02:44:32;;;;;;;17.60;14.40;;;;;;;7.14;79.91;100128.18;89049;1239;103308;-75
2021/10/13 02:46:49;;;;;;;18.30;14.60;;;;;;;7.16;79.88;100130.25;86665;1244;3164890;-76
2021/10/13 02:49:07;;;;;;;18.60;13.90;;;;;;;7.10;79.97;100132.52;89065;1240;93145;-75
2021/10/13 02:51:22;;;;;;;18.50;14.10;;;;;;;7.09;79.96;100132.66;86846;1249;3015328;-76
2021/10/13 02:53:34;;;;;;;18.50;14.10;;;;;;;7.11;79.95;100136.22;86810;1243;3105488;-75
2021/10/13 02:55:48;;;;;;;18.90;16.70;;;;;;;7.11;79.87;100140.01;89083;1240;91030;-76
2021/10/13 02:58:00;;;;;;;;;;;;;;;7.08;79.86;100140.85;86847;1239;3097211;-76
2021/10/13 03:00:12;;;;;;;20.50;16.00;;;;;;;6.98;79.92;100142.40;89065;1241;92188;-76
2021/10/13 03:02:26;;;;;;;19.90;16.10;;;;;;;6.93;80.04;100141.10;89033;1240;94722;-76
2021/10/13 03:04:40;;;;;;;21.00;15.90;;;;;;;6.88;80.09;100141.85;88883;1244;114722;-62
2021/10/13 03:06:55;;;;;;;21.00;16.20;;;;;;;6.90;80.12;100145.48;89011;1240;103294;-61
2021/10/13 03:09:04;;;;;;;22.30;17.30;;;;;;;6.90;80.15;100150.20;89032;1243;111707;-76
2021/10/13 03:11:15;;;;;;;21.50;17.00;;;;;;;6.90;80.20;100153.52;88982;1240;121036;-77
2021/10/13 03:13:30;;;;;;;19.80;15.70;;;;;;;6.91;80.20;100153.92;89043;1240;95301;-63
2021/10/13 03:15:42;;;;;;;22.60;16.80;;;;;;;6.93;80.32;100155.13;89027;1239;116310;-61
2021/10/13 03:17:54;;;;;;;21.40;17.00;;;;;;;6.92;80.26;100156.98;88938;1239;210500;-62
2021/10/13 03:20:02;;;;;;;19.30;15.60;;;;;;;6.91;80.29;100156.95;89063;1239;111910;-62
2021/10/13 03:22:10;;;;;;;20.50;16.10;;;;;;;6.94;80.31;100161.30;89032;1241;92006;-63
2021/10/13 03:24:20;;;;;;;21.20;16.50;;;;;;;6.95;80.38;100159.39;89062;1240;94587;-61
2021/10/13 03:26:27;;;;;;;21.80;16.80;;;;;;;6.96;80.36;100159.95;88961;1241;115898;-61
2021/10/13 03:28:37;;;;;;;21.10;16.60;;;;;;;6.97;80.28;100158.08;89011;1240;103667;-74
2021/10/13 03:30:45;;;;;;;21.00;16.60;;;;;;;6.97;80.35;100158.91;89056;1244;111936;-76
2021/10/13 03:32:53;;;;;;;20.40;16.00;;;;;;;6.94;80.38;100159.33;89102;1247;92702;-75
2021/10/13 03:35:01;;;;;;;20.40;16.70;;;;;;;6.92;80.35;100161.81;89018;1241;94445;-76
2021/10/13 03:37:08;;;;;;;20.50;17.40;;;;;;;6.91;80.33;100161.17;89013;1243;116450;-75
2021/10/13 03:39:17;;;;;;;22.90;18.20;;;;;;;6.93;80.27;100160.33;89033;1249;103925;-76
2021/10/13 03:41:27;;;;;;;21.00;17.60;;;;;;;6.94;80.31;100161.14;89009;1244;110854;-78
2021/10/13 03:43:46;;;;;;;22.30;16.70;;;;;;;6.94;80.31;100163.23;88950;1241;94475;-62
2021/10/13 03:45:54;;;;;;;20.40;17.90;;;;;;;6.97;80.31;100166.83;89050;1240;94234;-61
2021/10/13 03:48:05;;;;;;;20.90;17.60;;;;;;;6.96;80.34;100166.98;89065;1239;115685;-66
2021/10/13 03:50:15;;;;;;;22.80;18.50;;;;;;;6.95;80.32;100166.71;89110;1240;123321;-77
2021/10/13 03:52:22;;;;;;;23.20;18.90;;;;;;;6.93;80.41;100168.36;89217;1238;110474;-78
2021/10/13 03:54:29;;;;;;;22.60;18.50;;;;;;;6.91;80.41;100170.19;89223;1239;92977;-76
2021/10/13 03:56:36;;;;;;;22.60;16.80;;;;;;;6.93;80.29;100171.57;86968;1243;3013552;-75
2021/10/13 03:58:47;;;;;;;21.80;16.90;;;;;;;6.93;80.29;100170.16;89218;1248;134107;-61
2021/10/13 04:00:54;;;;;;;24.00;18.40;;;;;;;6.96;80.28;100171.41;89128;1240;91908;-61
2021/10/13 04:03:02;;;;;;;20.70;18.10;;;;;;;6.98;80.39;100175.06;89179;1239;110680;-65
2021/10/13 04:05:11;;;;;;;23.70;18.80;;;;;;;7.00;80.34;100177.57;89208;1239;91617;-61
2021/10/13 04:07:18;;;;;;;21.70;18.10;;;;;;;6.97;80.34;100177.88;86776;1239;3208765;-61
2021/10/13 04:09:28;;;;;;;21.10;17.10;;;;;;;6.97;80.30;100179.20;89154;1243;117211;-75
2021/10/13 04:11:36;;;;;;;21.80;17.90;;;;;;;6.96;80.32;100179.50;89198;1241;104304;-75
2021/10/13 04:13:44;;;;;;;20.80;18.10;;;;;;;6.98;80.27;100178.55;89040;1242;214061;-62
2021/10/13 04:15:51;;;;;;;24.90;18.30;;;;;;;6.97;80.34;100181.02;89160;1242;92029;-62
2021/10/13 04:18:07;;;;;;;21.20;17.50;;;;;;;6.97;80.40;100183.45;89170;1242;95014;-62
2021/10/13 04:20:16;;;;;;;23.40;19.20;;;;;;;6.93;80.38;100188.20;89033;1240;116344;-61
2021/10/13 04:22:23;;;;;;;23.90;18.90;;;;;;;6.94;80.40;100185.10;89041;1239;210867;-61
2021/10/13 04:24:31;;;;;;;22.00;18.30;;;;;;;6.96;80.33;100189.84;89148;1238;111272;-77
2021/10/13 04:26:38;;;;;;;23.60;18.40;;;;;;;7.01;80.34;100193.98;89183;1242;90934;-77
2021/10/13 04:28:46;;;;;;;22.40;18.80;;;;;;;7.00;80.38;100196.20;89185;1246;94857;-76
2021/10/13 04:30:53;;;;;;;22.80;18.50;;;;;;;7.00;80.32;100199.42;89080;1238;134693;-77
2021/10/13 04:33:03;;;;;;;22.00;18.40;;;;;;;6.98;80.41;100198.95;89175;1243;102769;-68
2021/10/13 04:35:12;;;;;;;24.20;17.70;;;;;;;7.00;80.38;100201.06;89195;1241;111429;-78
2021/10/13 04:37:21;;;;;;;21.50;18.20;;;;;;;7.02;80.35;100195.64;89178;1240;93807;-77
2021/10/13 04:39:28;;;;;;;21.10;18.40;;;;;;;7.04;80.44;100200.56;89163;1241;95558;-63
2021/10/13 04:41:35;;;;;;;25.20;19.40;;;;;;;7.07;80.51;100202.56;89163;1241;115747;-63
2021/10/13 04:43:42;;;;;;;22.30;19.70;;;;;;;7.05;80.55;100200.33;89187;1246;102845;-77
2021/10/13 04:45:50;;;;;;;25.10;19.10;;;;;;;7.02;80.52;100199.19;89123;1242;111501;-77
2021/10/13 04:47:57;;;;;;;24.20;19.20;;;;;;;7.04;80.55;100200.98;89159;1240;93579;-78
2021/10/13 04:50:05;;;;;;;23.50;18.80;;;;;;;7.04;80.54;100203.21;89190;1240;94271;-78
2021/10/13 04:52:13;;;;;;;23.90;20.20;;;;;;;7.08;80.57;100204.60;89145;1240;115861;-78
2021/10/13 04:54:20;;;;;;;25.10;20.00;;;;;;;7.13;80.62;100204.94;89152;1241;109913;-62
2021/10/13 04:56:27;;;;;;;26.60;20.40;;;;;;;7.14;80.58;100204.10;89180;1242;112167;-62
2021/10/13 04:58:34;;;;;;;27.00;20.10;;;;;;;7.11;80.57;100205.30;89164;1247;94758;-74
2021/10/13 05:00:44;;;;;;;30.20;21.40;;;;;;;7.10;80.57;100211.48;89180;1239;94746;-73
2021/10/13 05:02:53;;;;;;;25.00;20.00;;;;;;;7.16;80.56;100213.06;89058;1242;116294;-73
2021/10/13 05:05:00;;;;;;;26.90;20.70;;;;;;;7.19;80.49;100216.98;89184;1241;101881;-69
2021/10/13 05:07:11;;;;;;;29.80;22.10;;;;;;;7.18;80.62;100221.23;89225;1240;111207;-74
2021/10/13 05:09:18;;;;;;;27.70;20.90;;;;;;;7.15;80.61;100224.73;89202;1240;90809;-64
2021/10/13 05:11:25;;;;;;;30.40;22.30;;;;;;;7.16;80.62;100225.38;89128;1239;94440;-63
2021/10/13 05:13:33;;;;;;;27.80;20.60;;;;;;;7.16;80.54;100232.19;89180;1240;116179;-62
2021/10/13 05:15:40;;;;;;;28.00;20.10;;;;;;;7.16;80.62;100232.96;89236;1241;103313;-64
2021/10/13 05:17:47;;;;;;;29.20;21.70;;;;;;;7.18;80.57;100238.58;89118;1239;111884;-63
2021/10/13 05:19:55;;;;;;;26.40;20.70;;;;;;;7.22;80.62;100239.80;89182;1241;91040;-75
2021/10/13 05:22:02;;;;;;;27.70;20.50;;;;;;;7.23;80.77;100241.58;89065;1249;94085;-73
2021/10/13 05:24:11;;;;;;;31.60;21.50;;;;;;;7.25;80.72;100244.21;89172;1240;116379;-64
2021/10/13 05:26:19;;;;;;;27.90;20.20;;;;;;;7.28;80.78;100246.03;89127;1241;102505;-65
2021/10/13 05:28:26;;;;;;;27.70;20.90;;;;;;;7.28;80.84;100249.46;89186;1238;111662;-64
2021/10/13 05:30:36;;;;;;;28.50;20.90;;;;;;;7.29;80.87;100245.25;89289;1241;91620;-64
2021/10/13 05:32:43;;;;;;;27.20;21.50;;;;;;;7.29;80.98;100251.27;89279;1244;93074;-64
2021/10/13 05:34:54;;;;;;;28.70;21.80;;;;;;;7.30;80.96;100256.01;86600;1247;3259154;-71
2021/10/13 05:37:01;;;;;;;28.20;20.80;;;;;;;7.31;80.99;100260.39;89165;1241;103053;-73
2021/10/13 05:39:08;;;;;;;27.40;20.00;;;;;;;7.28;81.02;100264.66;89197;1245;111970;-63
2021/10/13 05:41:16;;;;;;;25.30;20.00;;;;;;;7.26;81.16;100269.08;89170;1246;93386;-64
2021/10/13 05:43:26;;;;;;;27.10;20.40;;;;;;;7.24;81.25;100272.51;89140;1241;117329;-72
2021/10/13 05:45:34;;;;;;;26.50;20.30;;;;;;;7.26;81.29;100278.30;89256;1247;116243;-69
2021/10/13 05:47:41;;;;;;;27.10;20.80;;;;;;;7.29;81.25;100280.35;89207;1240;103315;-73
2021/10/13 05:49:49;;;;;;;24.90;19.70;;;;;;;7.29;81.36;100286.44;89063;1241;152203;-72
2021/10/13 05:51:56;;;;;;;25.00;19.10;;;;;;;7.33;81.38;100289.30;89191;1243;93893;-72
2021/10/13 05:54:06;;;;;;;23.20;18.90;;;;;;;7.35;81.45;100293.13;89216;1240;94338;-64
2021/10/13 05:56:13;;;;;;;23.40;18.30;;;;;;;7.37;81.39;100294.78;89219;1239;115551;-63
2021/10/13 05:58:23;;;;;;;24.50;18.20;;;;;;;7.40;81.56;100298.67;89083;1240;188781;-72
2021/10/13 06:00:30;;;;;;;26.70;20.00;;;;;;;7.40;81.59;100305.09;89223;1244;111711;-74
2021/10/13 06:02:38;;;;;;;24.40;17.70;;;;;;;7.38;81.56;100307.45;89200;1240;94864;-73
2021/10/13 06:04:45;;;;;;;24.10;18.80;;;;;;;7.38;81.53;100307.64;89220;1239;93121;-64
2021/10/13 06:06:52;;;;;;;25.10;18.50;;;;;;;7.40;81.62;100319.53;89170;1240;116063;-64
2021/10/13 06:08:59;;;;;;;23.40;18.10;;;;;;;7.44;81.67;100315.73;89204;1242;103399;-68
2021/10/13 06:11:06;;;;;;;24.20;18.70;;;;;;;7.50;81.69;100320.02;89216;1240;111442;-70
2021/10/13 06:13:14;;;;;;;26.30;18.90;;;;;;;7.55;81.68;100324.45;89227;1238;92418;-68
2021/10/13 06:15:23;;;;;;;24.10;18.70;;;;;;;7.61;81.78;100328.27;89125;1243;122900;-69
2021/10/13 06:17:32;;;;;;;22.00;17.40;;;;;;;7.70;81.71;100331.17;89172;1240;116134;-73
2021/10/13 06:19:39;;;;;;;22.40;18.20;;;;;;;7.74;81.61;100334.33;89201;1239;103787;-64
2021/10/13 06:21:46;;;;;;;21.10;17.40;;;;;;;7.77;81.56;100339.73;89124;1242;111497;-64
2021/10/13 06:23:53;;;;;;;23.60;18.70;;;;;;;7.83;81.57;100343.70;89203;1240;92517;-73
2021/10/13 06:26:01;;;;;;;22.60;18.10;;;;;;;7.82;81.62;100346.84;89215;1241;94854;-74
2021/10/13 06:28:08;;;;;;;26.90;19.40;;;;;;;7.85;81.69;100350.00;89206;1243;116420;-71
2021/10/13 06:30:16;;;;;;;27.30;19.30;;;;;;;7.88;81.58;100351.10;89167;1241;102749;-73
2021/10/13 06:32:26;;;;;;;23.10;18.20;;;;;;;7.93;81.53;100352.42;89195;1244;110963;-75
2021/10/13 06:34:33;;;;;;;25.00;19.30;;;;;;;7.99;81.55;100355.86;89203;1240;90265;-73
2021/10/13 06:36:41;;;;;;;24.00;19.20;;;;;;;8.02;81.52;100358.94;89223;1247;95148;-73
2021/10/13 06:38:52;;;;;;;25.60;19.60;;;;;;;8.03;81.59;100360.08;89167;1241;116370;-64
2021/10/13 06:41:00;;;;;;;24.30;17.70;;;;;;;8.08;81.40;100365.45;89241;1241;102956;-63
2021/10/13 06:43:10;;;;;;;21.70;16.80;;;;;;;8.08;81.42;100364.09;89207;1239;111778;-65
2021/10/13 06:45:20;;;;;;;20.60;17.40;;;;;;;8.11;81.31;100363.91;89204;1243;94656;-65
2021/10/13 06:47:28;;;;;;;21.00;17.50;;;;;;;8.15;81.27;100367.63;89153;1246;137748;-64
2021/10/13 06:49:35;;;;;;;19.00;16.20;;;;;;;8.17;81.24;100368.81;89233;1241;116925;-75
2021/10/13 06:51:43;;;;;;;21.40;16.90;;;;;;;8.17;81.25;100371.39;89230;1243;103293;-74
2021/10/13 06:53:50;;;;;;;20.50;16.50;;;;;;;8.20;81.31;100374.77;89157;1247;158924;-62
2021/10/13 06:55:58;;;;;;;19.50;15.60;;;;;;;8.21;81.20;100377.90;89225;1239;93121;-74
2021/10/13 06:58:08;;;;;;;19.30;16.20;;;;;;;8.19;81.11;100379.77;89260;1240;94123;-66
2021/10/13 07:00:18;;;;;;;18.50;15.40;;;;;;;8.24;81.08;100383.27;89225;1250;116062;-64
2021/10/13 07:02:25;;;;;;;19.70;15.40;;;;;;;8.23;81.02;100387.59;89166;1241;145518;-64
2021/10/13 07:04:35;;;;;;;20.90;16.50;;;;;;;8.24;81.04;100388.85;89236;1241;111919;-78
2021/10/13 07:06:46;;;;;;;20.40;16.00;;;;;;;8.16;80.99;100392.08;89218;1241;93748;-75
2021/10/13 07:08:53;;;;;;;20.90;16.20;;;;;;;8.15;80.95;100393.30;89266;1241;95618;-75
2021/10/13 07:11:00;;;;;;;16.60;14.60;;;;;;;8.17;80.97;100396.29;89010;1241;299537;-72
2021/10/13 07:13:08;;;;;;;16.10;14.00;;;;;;;8.18;80.86;100400.66;89268;1242;103073;-64
2021/10/13 07:15:15;;;;;;;16.50;13.70;;;;;;;8.13;81.00;100400.71;89221;1247;110286;-64
2021/10/13 07:17:22;;;;;;;18.10;12.40;;;;;;;8.12;80.96;100400.27;89261;1241;91968;-65
2021/10/13 07:19:30;;;;;;;16.70;13.30;;;;;;;8.10;80.92;100406.27;89209;1243;115267;-73
2021/10/13 07:21:37;;;;;;;16.10;12.70;;;;;;;8.12;80.86;100408.95;89226;1243;116324;-74
2021/10/13 07:23:44;;;;;;;15.50;12.70;;;;;;;8.12;80.67;100409.86;89221;1245;103353;-72
2021/10/13 07:25:51;;;;;;;14.90;12.10;;;;;;;8.08;80.77;100414.42;89179;1246;113477;-73
2021/10/13 07:28:10;;;;;;;14.30;12.80;;;;;;;8.07;80.79;100415.77;89252;1240;90975;-73
2021/10/13 07:30:24;;;;;;;14.10;12.00;;;;;;;8.09;80.85;100412.79;89235;1241;95056;-73
2021/10/13 07:32:34;;;;;;;12.40;11.00;;;;;;;8.08;80.86;100416.29;89226;1242;115633;-72
2021/10/13 07:34:42;;;;;;;14.90;11.20;;;;;;;8.17;80.80;100418.48;89180;1241;102326;-74
2021/10/13 07:36:49;;;;;;;12.10;10.40;;;;;;;8.20;80.83;100418.34;89243;1241;111502;-74
2021/10/13 07:38:56;;;;;;;11.90;10.50;;;;;;;8.22;80.94;100423.39;89244;1241;92644;-73
2021/10/13 07:41:07;;;;;;;14.60;10.50;;;;;;;8.30;80.80;100421.05;89224;1241;93578;-75
2021/10/13 07:43:17;;;;;;;13.00;10.70;;;;;;;8.51;80.97;100422.30;89141;1241;127741;-62
2021/10/13 07:45:24;;;;;;;12.90;10.40;;;;;;;9.37;81.34;100420.36;89257;1241;104161;-63
2021/10/13 07:47:32;;;;;;;11.20;9.30;;;;;;;10.32;80.65;100417.62;89189;1241;111408;-64
2021/10/13 07:49:40;;;;;;;12.30;10.20;;;;;;;10.42;79.68;100418.54;89222;1241;91246;-74
2021/10/13 07:51:50;;;;;;;11.10;9.90;;;;;;;10.34;79.36;100420.83;89143;1239;95175;-73
2021/10/13 07:54:00;;;;;;;12.40;10.30;;;;;;;10.29;79.01;100418.05;89270;1242;115644;-73
2021/10/13 07:56:11;;;;;;;12.70;10.70;;;;;;;10.38;78.95;100418.53;87042;1241;3014085;-74
2021/10/13 07:58:18;;;;;;;11.60;10.20;;;;;;;10.41;78.52;100417.45;89275;1241;121111;-73
2021/10/13 08:00:26;;;;;;;11.30;9.80;;;;;;;10.98;78.75;100413.98;89314;1243;84072;-73
2021/10/13 08:02:33;;;;;;;12.40;9.90;;;;;;;11.11;77.70;100414.70;89388;1240;83245;-72
2021/10/13 08:04:40;;;;;;;11.60;9.60;;;;;;;11.53;77.94;100415.56;89308;1241;104586;-62
2021/10/13 08:06:47;;;;;;;10.30;9.20;;;;;;;12.09;76.86;100415.44;89174;1240;113123;-62
2021/10/13 08:08:54;;;;;;;10.00;8.20;;;;;;;12.12;76.16;100417.20;89230;1246;112481;-63
2021/10/13 08:11:02;;;;;;;7.80;6.80;;;;;;;13.06;75.93;100415.48;89251;1241;91437;-73
2021/10/13 08:13:09;;;;;;;8.40;7.20;;;;;;;14.78;74.82;100403.75;89292;1243;94028;-71
2021/10/13 08:15:20;;;;;;;8.20;6.90;;;;;;;15.68;71.99;100405.94;89177;1248;170599;-72
2021/10/13 08:17:27;;;;;;;8.20;6.30;;;;;;;16.01;71.34;100405.36;88988;1242;102910;-73
2021/10/13 08:19:34;;;;;;;8.60;6.00;;;;;;;16.10;70.94;100408.00;89237;1240;111660;-73
2021/10/13 08:21:41;;;;;;;6.00;5.30;;;;;;;16.10;70.01;100410.60;89222;1242;91132;-75
2021/10/13 08:23:48;;;;;;;5.80;5.20;;;;;;;15.96;69.07;100414.25;89188;1240;94897;-75
2021/10/13 08:25:58;;;;;;;7.40;5.20;;;;;;;16.12;67.72;100415.36;89257;1241;115998;-74
2021/10/13 08:28:06;;;;;;;7.10;4.70;;;;;;;16.25;67.40;100415.45;89229;1243;103198;-71
2021/10/13 08:30:14;;;;;;;6.40;4.70;;;;;;;16.29;67.23;100412.23;86903;1240;3106650;-73
2021/10/13 08:32:21;;;;;;;7.50;4.20;;;;;;;16.11;66.03;100413.47;89256;1240;92077;-72
2021/10/13 08:34:31;;;;;;;5.70;4.60;;;;;;;16.18;66.19;100411.46;89269;1241;95362;-63
2021/10/13 08:36:38;;;;;;;5.70;4.60;;;;;;;16.50;66.15;100408.91;89288;1247;115872;-62
2021/10/13 08:38:46;;;;;;;5.40;4.70;;;;;;;16.83;64.86;100411.80;89139;1241;190859;-73
2021/10/13 08:40:53;;;;;;;6.40;4.50;;;;;;;16.60;63.69;100411.42;89294;1241;110597;-74
2021/10/13 08:43:05;;;;;;;6.70;4.90;;;;;;;17.03;63.35;100414.55;89258;1241;91768;-68
2021/10/13 08:45:16;;;;;;;5.40;4.40;;;;;;;17.98;63.13;100413.92;89310;1246;94977;-63
2021/10/13 08:47:26;;;;;;;6.50;4.10;;;;;;;18.76;61.59;100410.63;89187;1241;115607;-63
2021/10/13 08:49:53;;;;;;;4.50;3.70;;;;;;;19.58;61.19;100412.36;89692;1239;98485;-63
2021/10/13 08:52:07;;;;;;;4.00;3.60;;;;;;;19.81;59.71;100417.82;89301;1238;111352;-63
2021/10/13 08:54:17;;;;;;;4.40;3.70;;;;;;;19.75;58.80;100418.48;89232;1239;142375;-63
2021/10/13 08:56:27;;;;;;;3.60;3.30;;;;;;;20.22;58.28;100420.94;89315;1239;93383;-63
2021/10/13 08:58:42;;;;;;;4.80;3.40;;;;;;;20.41;56.88;100424.36;89317;1243;116358;-63
2021/10/13 09:01:07;;;;;;;4.20;3.50;;;;;;;20.74;56.81;100421.85;89281;1241;101747;-63
2021/10/13 09:03:31;;;;;;;3.80;3.30;;;;;;;21.69;55.56;100428.96;89224;1237;112209;-73
2021/10/13 09:05:44;;;;;;;4.10;3.00;;;;;;;22.36;54.20;100427.42;89260;1238;91947;-71
2021/10/13 09:07:54;;;;;;;2.70;2.40;;;;;;;22.24;53.21;100431.42;89278;1239;95048;-61
2021/10/13 09:10:01;;;;;;;4.20;2.90;;;;;;;22.20;52.51;100428.41;89202;1238;116265;-73
2021/10/13 09:12:09;;;;;;;3.20;2.30;;;;;;;22.24;50.87;100429.81;89271;1239;103260;-73
2021/10/13 09:14:21;;;;;;;3.80;2.80;;;;;;;21.83;50.94;100434.33;89267;1237;111008;-63
2021/10/13 09:16:29;;;;;;;3.40;3.10;;;;;;;21.34;51.25;100430.10;89286;1239;91341;-64
2021/10/13 09:18:39;;;;;;;3.50;3.20;;;;;;;21.35;50.97;100432.54;89213;1239;130915;-64
2021/10/13 09:20:51;;;;;;;3.70;3.30;;;;;;;21.14;49.99;100435.30;89292;1239;115717;-64
2021/10/13 09:23:06;;;;;;;4.20;3.30;;;;;;;19.97;49.77;100434.20;89283;1239;103852;-63
2021/10/13 09:25:14;;;;;;;7.00;3.90;;;;;;;18.92;49.96;100437.11;89272;1242;111777;-63
2021/10/13 09:27:25;;;;;;;4.30;3.20;;;;;;;18.20;50.72;100445.84;89225;1247;115134;-64
2021/10/13 09:29:33;;;;;;;4.30;3.50;;;;;;;18.57;51.92;100445.34;89325;1237;94056;-74
2021/10/13 09:31:42;;;;;;;4.00;3.60;;;;;;;19.33;51.88;100439.42;89278;1244;115578;-73
2021/10/13 09:34:02;;;;;;;4.60;4.20;;;;;;;19.92;51.92;100436.05;89293;1239;101753;-67
2021/10/13 09:36:16;;;;;;;4.50;4.00;;;;;;;20.66;51.20;100434.55;89219;1238;110753;-65
2021/10/13 09:38:27;;;;;;;4.20;3.80;;;;;;;21.28;50.72;100434.48;89292;1238;90057;-66
2021/10/13 09:40:38;;;;;;;3.90;3.10;;;;;;;21.73;50.15;100435.39;89311;1237;95435;-63
2021/10/13 09:42:45;;;;;;;4.70;4.10;;;;;;;21.65;48.53;100438.22;86849;1241;3226882;-63
2021/10/13 09:44:59;;;;;;;4.00;3.60;;;;;;;20.35;47.32;100441.40;89268;1247;103466;-75
2021/10/13 09:47:09;;;;;;;3.40;3.10;;;;;;;18.96;47.83;100450.92;89298;1248;110071;-74
2021/10/13 09:49:28;;;;;;;3.40;2.90;;;;;;;18.05;48.14;100455.19;89253;1249;91916;-63
2021/10/13 09:51:39;;;;;;;3.30;2.90;;;;;;;17.12;49.15;100452.52;89186;1237;137690;-62
2021/10/13 09:53:48;;;;;;;4.30;3.10;;;;;;;16.48;49.75;100454.62;89304;1240;115825;-72